sensor_id;sensor_type;location;lat;lon;timestamp;pressure;altitude;pressure_sealevel;temperature;humidity
52935;BME280;38802;50.198;19.796;2023-06-14T00:00:00;96095.00;;;10.64;85.89
52935;BME280;38802;50.198;19.796;2023-06-14T00:02:28;96091.11;;;10.67;86.14
52935;BME280;38802;50.198;19.796;2023-06-14T00:04:57;96091.77;;;10.70;86.08
52935;BME280;38802;50.198;19.796;2023-06-14T00:07:38;96089.95;;;10.69;86.35
52935;BME280;38802;50.198;19.796;2023-06-14T00:10:14;96090.34;;;10.68;86.42
52935;BME280;38802;50.198;19.796;2023-06-14T00:12:42;96092.83;;;10.65;86.74
52935;BME280;38802;50.198;19.796;2023-06-14T00:15:10;96091.98;;;10.61;86.78
52935;BME280;38802;50.198;19.796;2023-06-14T00:17:38;96095.71;;;10.60;86.92
52935;BME280;38802;50.198;19.796;2023-06-14T00:20:07;96095.30;;;10.61;86.92
52935;BME280;38802;50.198;19.796;2023-06-14T00:22:37;96093.58;;;10.63;87.08
52935;BME280;38802;50.198;19.796;2023-06-14T00:25:06;96095.80;;;10.63;86.83
52935;BME280;38802;50.198;19.796;2023-06-14T00:27:46;96091.44;;;10.63;86.73
52935;BME280;38802;50.198;19.796;2023-06-14T00:30:15;96095.27;;;10.65;86.89
52935;BME280;38802;50.198;19.796;2023-06-14T00:32:44;96094.86;;;10.66;86.70
52935;BME280;38802;50.198;19.796;2023-06-14T00:35:13;96090.30;;;10.71;87.13
52935;BME280;38802;50.198;19.796;2023-06-14T00:37:41;96093.02;;;10.72;86.97
52935;BME280;38802;50.198;19.796;2023-06-14T00:40:09;96091.48;;;10.71;87.11
52935;BME280;38802;50.198;19.796;2023-06-14T00:42:37;96091.15;;;10.73;86.86
52935;BME280;38802;50.198;19.796;2023-06-14T00:45:06;96087.63;;;10.76;87.25
52935;BME280;38802;50.198;19.796;2023-06-14T00:47:36;96087.89;;;10.77;87.40
52935;BME280;38802;50.198;19.796;2023-06-14T00:50:07;96088.80;;;10.76;87.23
52935;BME280;38802;50.198;19.796;2023-06-14T00:52:35;96084.84;;;10.78;87.06
52935;BME280;38802;50.198;19.796;2023-06-14T00:55:04;96081.71;;;10.82;87.36
52935;BME280;38802;50.198;19.796;2023-06-14T00:57:32;96080.66;;;10.86;87.33
52935;BME280;38802;50.198;19.796;2023-06-14T01:00:00;96079.17;;;10.87;87.11
52935;BME280;38802;50.198;19.796;2023-06-14T01:02:28;96077.11;;;10.91;87.35
52935;BME280;38802;50.198;19.796;2023-06-14T01:04:57;96075.23;;;10.94;87.45
52935;BME280;38802;50.198;19.796;2023-06-14T01:12:40;96064.70;;;11.04;87.22
52935;BME280;38802;50.198;19.796;2023-06-14T01:15:16;96062.04;;;11.06;87.12
52935;BME280;38802;50.198;19.796;2023-06-14T01:17:49;96061.96;;;11.11;87.11
52935;BME280;38802;50.198;19.796;2023-06-14T01:20:20;96058.98;;;11.17;87.32
52935;BME280;38802;50.198;19.796;2023-06-14T01:22:53;96060.61;;;11.21;87.09
52935;BME280;38802;50.198;19.796;2023-06-14T01:25:22;96061.39;;;11.22;87.08
52935;BME280;38802;50.198;19.796;2023-06-14T01:28:00;96060.00;;;11.22;87.06
52935;BME280;38802;50.198;19.796;2023-06-14T01:30:31;96056.98;;;11.28;87.16
52935;BME280;38802;50.198;19.796;2023-06-14T01:33:01;96056.19;;;11.34;87.21
52935;BME280;38802;50.198;19.796;2023-06-14T01:35:31;96056.60;;;11.37;87.27
52935;BME280;38802;50.198;19.796;2023-06-14T01:38:02;96053.91;;;11.42;87.44
52935;BME280;38802;50.198;19.796;2023-06-14T01:40:31;96050.56;;;11.44;87.39
52935;BME280;38802;50.198;19.796;2023-06-14T01:43:02;96050.13;;;11.45;87.25
52935;BME280;38802;50.198;19.796;2023-06-14T01:45:33;96050.66;;;11.45;87.17
52935;BME280;38802;50.198;19.796;2023-06-14T01:48:03;96050.48;;;11.43;87.11
52935;BME280;38802;50.198;19.796;2023-06-14T01:50:32;96047.57;;;11.44;87.13
52935;BME280;38802;50.198;19.796;2023-06-14T01:53:00;96043.99;;;11.42;87.08
52935;BME280;38802;50.198;19.796;2023-06-14T01:55:28;96050.56;;;11.38;87.20
52935;BME280;38802;50.198;19.796;2023-06-14T01:57:56;96044.55;;;11.40;87.28
52935;BME280;38802;50.198;19.796;2023-06-14T02:00:24;96048.00;;;11.42;87.30
52935;BME280;38802;50.198;19.796;2023-06-14T02:02:53;96044.02;;;11.43;87.57
52935;BME280;38802;50.198;19.796;2023-06-14T02:05:21;96045.40;;;11.41;87.59
52935;BME280;38802;50.198;19.796;2023-06-14T02:07:49;96041.16;;;11.38;87.42
52935;BME280;38802;50.198;19.796;2023-06-14T02:10:19;96039.27;;;11.34;87.45
52935;BME280;38802;50.198;19.796;2023-06-14T02:12:47;96040.27;;;11.30;87.48
52935;BME280;38802;50.198;19.796;2023-06-14T02:15:15;96037.55;;;11.28;87.69
52935;BME280;38802;50.198;19.796;2023-06-14T02:17:47;96039.55;;;11.27;87.48
52935;BME280;38802;50.198;19.796;2023-06-14T02:20:17;96041.35;;;11.28;87.68
52935;BME280;38802;50.198;19.796;2023-06-14T02:22:45;96041.96;;;11.27;87.72
52935;BME280;38802;50.198;19.796;2023-06-14T02:25:13;96039.55;;;11.29;88.04
52935;BME280;38802;50.198;19.796;2023-06-14T02:27:42;96038.46;;;11.29;87.95
52935;BME280;38802;50.198;19.796;2023-06-14T02:30:11;96041.08;;;11.27;88.03
52935;BME280;38802;50.198;19.796;2023-06-14T02:32:39;96045.38;;;11.26;88.05
52935;BME280;38802;50.198;19.796;2023-06-14T02:35:08;96046.66;;;11.23;87.93
52935;BME280;38802;50.198;19.796;2023-06-14T02:37:36;96048.04;;;11.23;88.11
52935;BME280;38802;50.198;19.796;2023-06-14T02:40:05;96046.86;;;11.25;88.24
52935;BME280;38802;50.198;19.796;2023-06-14T02:44:57;96041.59;;;11.27;88.57
52935;BME280;38802;50.198;19.796;2023-06-14T02:47:24;96038.67;;;11.29;88.50
52935;BME280;38802;50.198;19.796;2023-06-14T02:49:51;96037.45;;;11.31;88.62
52935;BME280;38802;50.198;19.796;2023-06-14T02:52:17;96036.70;;;11.30;88.62
52935;BME280;38802;50.198;19.796;2023-06-14T02:54:44;96032.63;;;11.26;88.76
52935;BME280;38802;50.198;19.796;2023-06-14T02:57:11;96036.86;;;11.22;88.91
52935;BME280;38802;50.198;19.796;2023-06-14T02:59:38;96041.23;;;11.23;88.75
52935;BME280;38802;50.198;19.796;2023-06-14T03:02:05;96041.75;;;11.25;88.89
52935;BME280;38802;50.198;19.796;2023-06-14T03:04:32;96035.02;;;11.29;88.94
52935;BME280;38802;50.198;19.796;2023-06-14T03:07:07;96038.36;;;11.32;88.83
52935;BME280;38802;50.198;19.796;2023-06-14T03:09:38;96037.77;;;11.36;88.95
52935;BME280;38802;50.198;19.796;2023-06-14T03:12:06;96040.23;;;11.35;88.96
52935;BME280;38802;50.198;19.796;2023-06-14T03:14:34;96040.48;;;11.38;88.97
52935;BME280;38802;50.198;19.796;2023-06-14T03:17:02;96042.27;;;11.40;89.02
52935;BME280;38802;50.198;19.796;2023-06-14T03:19:30;96042.15;;;11.39;89.09
52935;BME280;38802;50.198;19.796;2023-06-14T03:21:57;96044.36;;;11.45;89.08
52935;BME280;38802;50.198;19.796;2023-06-14T03:24:25;96046.55;;;11.50;89.13
52935;BME280;38802;50.198;19.796;2023-06-14T03:26:56;96040.65;;;11.52;89.15
52935;BME280;38802;50.198;19.796;2023-06-14T03:29:23;96043.34;;;11.54;89.10
52935;BME280;38802;50.198;19.796;2023-06-14T03:31:58;96040.52;;;11.55;89.24
52935;BME280;38802;50.198;19.796;2023-06-14T03:34:28;96039.69;;;11.57;89.19
52935;BME280;38802;50.198;19.796;2023-06-14T03:36:54;96040.80;;;11.56;89.17
52935;BME280;38802;50.198;19.796;2023-06-14T03:39:22;96039.14;;;11.55;89.03
52935;BME280;38802;50.198;19.796;2023-06-14T03:41:49;96041.29;;;11.54;89.29
52935;BME280;38802;50.198;19.796;2023-06-14T03:44:17;96042.16;;;11.56;89.35
52935;BME280;38802;50.198;19.796;2023-06-14T03:46:45;96044.72;;;11.53;89.60
52935;BME280;38802;50.198;19.796;2023-06-14T03:49:13;96045.08;;;11.51;89.56
52935;BME280;38802;50.198;19.796;2023-06-14T03:51:39;96043.61;;;11.51;89.44
52935;BME280;38802;50.198;19.796;2023-06-14T03:54:07;96043.09;;;11.53;89.69
52935;BME280;38802;50.198;19.796;2023-06-14T03:56:54;96043.78;;;11.53;89.77
52935;BME280;38802;50.198;19.796;2023-06-14T03:59:23;96047.68;;;11.51;89.78
52935;BME280;38802;50.198;19.796;2023-06-14T04:01:50;96047.91;;;11.52;89.80
52935;BME280;38802;50.198;19.796;2023-06-14T04:04:17;96049.46;;;11.54;89.89
52935;BME280;38802;50.198;19.796;2023-06-14T04:06:44;96054.22;;;11.54;89.85
52935;BME280;38802;50.198;19.796;2023-06-14T04:09:14;96053.06;;;11.53;89.83
52935;BME280;38802;50.198;19.796;2023-06-14T04:11:41;96056.81;;;11.54;89.85
52935;BME280;38802;50.198;19.796;2023-06-14T04:14:07;96055.40;;;11.54;89.92
52935;BME280;38802;50.198;19.796;2023-06-14T04:16:34;96060.79;;;11.56;90.13
52935;BME280;38802;50.198;19.796;2023-06-14T04:19:01;96059.22;;;11.60;90.24
52935;BME280;38802;50.198;19.796;2023-06-14T04:21:28;96059.96;;;11.59;90.32
52935;BME280;38802;50.198;19.796;2023-06-14T04:23:57;96062.56;;;11.61;90.21
52935;BME280;38802;50.198;19.796;2023-06-14T04:26:27;96062.49;;;11.62;90.53
52935;BME280;38802;50.198;19.796;2023-06-14T04:28:57;96059.90;;;11.58;90.65
52935;BME280;38802;50.198;19.796;2023-06-14T04:31:30;96061.48;;;11.56;90.79
52935;BME280;38802;50.198;19.796;2023-06-14T04:34:00;96061.17;;;11.57;90.70
52935;BME280;38802;50.198;19.796;2023-06-14T04:36:27;96061.09;;;11.58;90.80
52935;BME280;38802;50.198;19.796;2023-06-14T04:38:55;96062.08;;;11.57;91.02
52935;BME280;38802;50.198;19.796;2023-06-14T04:41:25;96063.94;;;11.56;91.14
52935;BME280;38802;50.198;19.796;2023-06-14T04:43:58;96063.39;;;11.54;90.85
52935;BME280;38802;50.198;19.796;2023-06-14T04:46:30;96066.09;;;11.57;91.00
52935;BME280;38802;50.198;19.796;2023-06-14T04:48:58;96066.77;;;11.59;90.92
52935;BME280;38802;50.198;19.796;2023-06-14T04:51:37;96060.26;;;11.58;90.97
52935;BME280;38802;50.198;19.796;2023-06-14T04:54:14;96063.86;;;11.57;91.19
52935;BME280;38802;50.198;19.796;2023-06-14T04:56:41;96061.77;;;11.55;91.34
52935;BME280;38802;50.198;19.796;2023-06-14T04:59:09;96061.91;;;11.55;91.11
52935;BME280;38802;50.198;19.796;2023-06-14T05:01:38;96061.85;;;11.56;91.70
52935;BME280;38802;50.198;19.796;2023-06-14T05:04:04;96062.55;;;11.54;91.73
52935;BME280;38802;50.198;19.796;2023-06-14T05:06:31;96062.59;;;11.49;91.73
52935;BME280;38802;50.198;19.796;2023-06-14T05:08:58;96066.66;;;11.47;91.60
52935;BME280;38802;50.198;19.796;2023-06-14T05:11:25;96071.68;;;11.47;91.57
52935;BME280;38802;50.198;19.796;2023-06-14T05:13:53;96070.02;;;11.50;91.70
52935;BME280;38802;50.198;19.796;2023-06-14T05:16:19;96070.07;;;11.53;92.03
52935;BME280;38802;50.198;19.796;2023-06-14T05:18:50;96069.35;;;11.52;92.09
52935;BME280;38802;50.198;19.796;2023-06-14T05:21:17;96075.20;;;11.49;92.01
52935;BME280;38802;50.198;19.796;2023-06-14T05:23:45;96069.58;;;11.49;92.30
52935;BME280;38802;50.198;19.796;2023-06-14T05:26:11;96070.70;;;11.50;92.24
52935;BME280;38802;50.198;19.796;2023-06-14T05:28:38;96072.75;;;11.47;92.59
52935;BME280;38802;50.198;19.796;2023-06-14T05:31:05;96074.83;;;11.43;92.45
52935;BME280;38802;50.198;19.796;2023-06-14T05:33:32;96078.11;;;11.41;92.63
52935;BME280;38802;50.198;19.796;2023-06-14T05:35:59;96077.60;;;11.39;92.68
52935;BME280;38802;50.198;19.796;2023-06-14T05:38:25;96077.48;;;11.39;92.51
52935;BME280;38802;50.198;19.796;2023-06-14T05:40:52;96078.63;;;11.40;92.59
52935;BME280;38802;50.198;19.796;2023-06-14T05:43:19;96080.36;;;11.41;92.51
52935;BME280;38802;50.198;19.796;2023-06-14T05:45:46;96080.98;;;11.44;92.51
52935;BME280;38802;50.198;19.796;2023-06-14T05:48:12;96084.71;;;11.47;92.71
52935;BME280;38802;50.198;19.796;2023-06-14T05:50:39;96087.08;;;11.48;92.47
52935;BME280;38802;50.198;19.796;2023-06-14T05:53:06;96088.73;;;11.51;92.78
52935;BME280;38802;50.198;19.796;2023-06-14T05:55:32;96089.08;;;11.51;92.82
52935;BME280;38802;50.198;19.796;2023-06-14T05:57:59;96089.10;;;11.53;92.53
52935;BME280;38802;50.198;19.796;2023-06-14T06:00:26;96092.47;;;11.60;92.78
52935;BME280;38802;50.198;19.796;2023-06-14T06:02:53;96089.77;;;11.64;92.93
52935;BME280;38802;50.198;19.796;2023-06-14T06:05:19;96094.66;;;11.64;92.78
52935;BME280;38802;50.198;19.796;2023-06-14T06:07:46;96092.05;;;11.64;92.89
52935;BME280;38802;50.198;19.796;2023-06-14T06:10:13;96096.56;;;11.64;92.95
52935;BME280;38802;50.198;19.796;2023-06-14T06:12:41;96100.79;;;11.66;93.09
52935;BME280;38802;50.198;19.796;2023-06-14T06:15:08;96093.98;;;11.62;93.14
52935;BME280;38802;50.198;19.796;2023-06-14T06:17:38;96100.52;;;11.61;93.04
52935;BME280;38802;50.198;19.796;2023-06-14T06:20:23;96105.67;;;11.60;93.00
52935;BME280;38802;50.198;19.796;2023-06-14T06:22:54;96106.63;;;11.57;92.99
52935;BME280;38802;50.198;19.796;2023-06-14T06:25:20;96107.92;;;11.54;92.99
52935;BME280;38802;50.198;19.796;2023-06-14T06:27:48;96104.11;;;11.52;93.14
52935;BME280;38802;50.198;19.796;2023-06-14T06:30:15;96103.31;;;11.53;93.40
52935;BME280;38802;50.198;19.796;2023-06-14T06:32:42;96098.17;;;11.54;93.19
52935;BME280;38802;50.198;19.796;2023-06-14T06:35:09;96101.25;;;11.57;93.53
52935;BME280;38802;50.198;19.796;2023-06-14T06:37:37;96103.31;;;11.59;93.11
52935;BME280;38802;50.198;19.796;2023-06-14T06:40:04;96106.55;;;11.60;93.23
52935;BME280;38802;50.198;19.796;2023-06-14T06:42:32;96106.27;;;11.61;93.34
52935;BME280;38802;50.198;19.796;2023-06-14T06:45:02;96112.16;;;11.65;93.20
52935;BME280;38802;50.198;19.796;2023-06-14T06:47:29;96120.39;;;11.69;93.29
52935;BME280;38802;50.198;19.796;2023-06-14T06:49:56;96118.55;;;11.72;93.38
52935;BME280;38802;50.198;19.796;2023-06-14T06:52:22;96120.71;;;11.71;93.27
52935;BME280;38802;50.198;19.796;2023-06-14T06:54:49;96125.86;;;11.72;93.55
52935;BME280;38802;50.198;19.796;2023-06-14T06:57:17;96128.58;;;11.69;93.25
52935;BME280;38802;50.198;19.796;2023-06-14T06:59:47;96130.08;;;11.67;93.51
52935;BME280;38802;50.198;19.796;2023-06-14T07:02:14;96134.80;;;11.63;93.51
52935;BME280;38802;50.198;19.796;2023-06-14T07:04:41;96138.77;;;11.61;93.50
52935;BME280;38802;50.198;19.796;2023-06-14T07:07:08;96145.30;;;11.64;93.48
52935;BME280;38802;50.198;19.796;2023-06-14T07:09:36;96146.16;;;11.67;93.37
52935;BME280;38802;50.198;19.796;2023-06-14T07:12:03;96144.13;;;11.68;93.32
52935;BME280;38802;50.198;19.796;2023-06-14T07:14:29;96146.52;;;11.71;93.43
52935;BME280;38802;50.198;19.796;2023-06-14T07:16:56;96145.65;;;11.73;93.53
52935;BME280;38802;50.198;19.796;2023-06-14T07:19:23;96149.60;;;11.75;93.42
52935;BME280;38802;50.198;19.796;2023-06-14T07:21:49;96149.11;;;11.79;93.39
52935;BME280;38802;50.198;19.796;2023-06-14T07:24:18;96149.10;;;11.81;93.39
52935;BME280;38802;50.198;19.796;2023-06-14T07:26:44;96152.75;;;11.81;93.29
52935;BME280;38802;50.198;19.796;2023-06-14T07:29:11;96154.21;;;11.84;93.28
52935;BME280;38802;50.198;19.796;2023-06-14T07:31:37;96158.96;;;11.91;93.39
52935;BME280;38802;50.198;19.796;2023-06-14T07:34:04;96164.27;;;11.98;93.42
52935;BME280;38802;50.198;19.796;2023-06-14T07:36:31;96168.31;;;12.00;93.32
52935;BME280;38802;50.198;19.796;2023-06-14T07:38:58;96166.16;;;11.96;93.31
52935;BME280;38802;50.198;19.796;2023-06-14T07:41:24;96166.66;;;11.93;93.47
52935;BME280;38802;50.198;19.796;2023-06-14T07:43:52;96167.10;;;11.90;93.54
52935;BME280;38802;50.198;19.796;2023-06-14T07:46:18;96171.66;;;11.89;93.48
52935;BME280;38802;50.198;19.796;2023-06-14T07:48:45;96171.64;;;11.90;93.51
52935;BME280;38802;50.198;19.796;2023-06-14T07:51:12;96174.27;;;11.91;93.40
52935;BME280;38802;50.198;19.796;2023-06-14T07:53:40;96173.38;;;11.92;93.42
52935;BME280;38802;50.198;19.796;2023-06-14T07:56:07;96176.70;;;11.94;93.47
52935;BME280;38802;50.198;19.796;2023-06-14T07:58:34;96176.48;;;11.96;93.51
52935;BME280;38802;50.198;19.796;2023-06-14T08:01:00;96178.40;;;11.98;93.24
52935;BME280;38802;50.198;19.796;2023-06-14T08:03:32;96173.64;;;11.97;93.35
52935;BME280;38802;50.198;19.796;2023-06-14T08:05:59;96174.25;;;12.00;93.53
52935;BME280;38802;50.198;19.796;2023-06-14T08:08:27;96173.82;;;12.01;93.51
52935;BME280;38802;50.198;19.796;2023-06-14T08:10:53;96174.29;;;11.99;93.25
52935;BME280;38802;50.198;19.796;2023-06-14T08:13:20;96171.31;;;11.98;93.43
52935;BME280;38802;50.198;19.796;2023-06-14T08:15:47;96167.38;;;11.94;93.45
52935;BME280;38802;50.198;19.796;2023-06-14T08:18:13;96166.06;;;11.98;93.64
52935;BME280;38802;50.198;19.796;2023-06-14T08:20:40;96164.90;;;12.01;93.51
52935;BME280;38802;50.198;19.796;2023-06-14T08:23:07;96166.64;;;11.99;93.55
52935;BME280;38802;50.198;19.796;2023-06-14T08:25:35;96174.01;;;11.99;93.65
52935;BME280;38802;50.198;19.796;2023-06-14T08:28:02;96177.80;;;11.99;93.59
52935;BME280;38802;50.198;19.796;2023-06-14T08:30:28;96172.77;;;12.01;93.77
52935;BME280;38802;50.198;19.796;2023-06-14T08:32:55;96179.92;;;12.00;93.57
52935;BME280;38802;50.198;19.796;2023-06-14T08:35:25;96181.70;;;12.04;93.72
52935;BME280;38802;50.198;19.796;2023-06-14T08:37:51;96182.62;;;12.05;93.68
52935;BME280;38802;50.198;19.796;2023-06-14T08:40:21;96184.30;;;12.08;93.91
52935;BME280;38802;50.198;19.796;2023-06-14T08:42:52;96183.88;;;12.07;93.90
52935;BME280;38802;50.198;19.796;2023-06-14T08:45:20;96186.52;;;12.03;93.89
52935;BME280;38802;50.198;19.796;2023-06-14T08:47:53;96188.49;;;12.02;93.91
52935;BME280;38802;50.198;19.796;2023-06-14T08:50:25;96189.73;;;12.04;93.88
52935;BME280;38802;50.198;19.796;2023-06-14T08:53:01;96192.81;;;12.02;93.95
52935;BME280;38802;50.198;19.796;2023-06-14T08:55:30;96191.77;;;12.03;94.01
52935;BME280;38802;50.198;19.796;2023-06-14T08:58:02;96191.88;;;12.05;94.20
52935;BME280;38802;50.198;19.796;2023-06-14T09:00:34;96200.06;;;12.01;93.99
52935;BME280;38802;50.198;19.796;2023-06-14T09:03:01;96201.73;;;11.98;93.96
52935;BME280;38802;50.198;19.796;2023-06-14T09:05:29;96207.95;;;11.99;94.08
52935;BME280;38802;50.198;19.796;2023-06-14T09:07:56;96204.80;;;11.99;94.00
52935;BME280;38802;50.198;19.796;2023-06-14T09:10:31;96205.54;;;12.02;94.24
52935;BME280;38802;50.198;19.796;2023-06-14T09:13:03;96210.02;;;12.05;94.13
52935;BME280;38802;50.198;19.796;2023-06-14T09:15:30;96216.77;;;12.05;94.07
52935;BME280;38802;50.198;19.796;2023-06-14T09:17:58;96216.14;;;12.06;94.20
52935;BME280;38802;50.198;19.796;2023-06-14T09:20:24;96215.53;;;12.07;94.16
52935;BME280;38802;50.198;19.796;2023-06-14T09:22:53;96217.13;;;12.11;94.20
52935;BME280;38802;50.198;19.796;2023-06-14T09:25:43;96217.66;;;12.15;94.33
52935;BME280;38802;50.198;19.796;2023-06-14T09:28:12;96218.64;;;12.13;94.37
52935;BME280;38802;50.198;19.796;2023-06-14T09:30:39;96221.45;;;12.11;94.26
52935;BME280;38802;50.198;19.796;2023-06-14T09:33:06;96216.74;;;12.11;94.32
52935;BME280;38802;50.198;19.796;2023-06-14T09:35:33;96218.71;;;12.09;94.43
52935;BME280;38802;50.198;19.796;2023-06-14T09:38:00;96218.66;;;12.07;94.27
52935;BME280;38802;50.198;19.796;2023-06-14T09:40:27;96215.36;;;12.09;94.36
52935;BME280;38802;50.198;19.796;2023-06-14T09:42:54;96211.10;;;12.08;94.37
52935;BME280;38802;50.198;19.796;2023-06-14T09:45:24;96213.46;;;12.07;94.38
52935;BME280;38802;50.198;19.796;2023-06-14T09:47:55;96208.68;;;12.10;94.34
52935;BME280;38802;50.198;19.796;2023-06-14T09:50:34;96211.41;;;12.15;94.34
52935;BME280;38802;50.198;19.796;2023-06-14T09:53:06;96210.25;;;12.16;94.35
52935;BME280;38802;50.198;19.796;2023-06-14T09:55:36;96209.79;;;12.15;94.27
52935;BME280;38802;50.198;19.796;2023-06-14T09:58:05;96216.99;;;12.18;94.37
52935;BME280;38802;50.198;19.796;2023-06-14T10:00:35;96216.64;;;12.22;94.30
52935;BME280;38802;50.198;19.796;2023-06-14T10:03:08;96215.73;;;12.27;94.35
52935;BME280;38802;50.198;19.796;2023-06-14T10:05:40;96216.89;;;12.27;94.24
52935;BME280;38802;50.198;19.796;2023-06-14T10:08:09;96216.34;;;12.30;94.27
52935;BME280;38802;50.198;19.796;2023-06-14T10:10:39;96214.77;;;12.34;94.32
52935;BME280;38802;50.198;19.796;2023-06-14T10:13:07;96216.66;;;12.36;94.33
52935;BME280;38802;50.198;19.796;2023-06-14T10:23:33;96220.02;;;12.33;94.32
52935;BME280;38802;50.198;19.796;2023-06-14T10:26:01;96222.33;;;12.33;94.27
52935;BME280;38802;50.198;19.796;2023-06-14T10:28:28;96220.27;;;12.33;94.27
52935;BME280;38802;50.198;19.796;2023-06-14T10:31:04;96216.06;;;12.33;94.15
52935;BME280;38802;50.198;19.796;2023-06-14T10:39:07;96209.81;;;12.40;94.54
52935;BME280;38802;50.198;19.796;2023-06-14T10:41:38;96212.56;;;12.44;94.40
52935;BME280;38802;50.198;19.796;2023-06-14T10:46:47;96214.77;;;12.47;94.30
52935;BME280;38802;50.198;19.796;2023-06-14T10:49:16;96218.06;;;12.51;94.57
52935;BME280;38802;50.198;19.796;2023-06-14T10:51:51;96215.61;;;12.51;94.24
52935;BME280;38802;50.198;19.796;2023-06-14T10:54:21;96215.77;;;12.51;94.40
52935;BME280;38802;50.198;19.796;2023-06-14T10:56:52;96214.18;;;12.53;94.60
52935;BME280;38802;50.198;19.796;2023-06-14T10:59:21;96214.81;;;12.56;94.51
52935;BME280;38802;50.198;19.796;2023-06-14T11:02:27;96216.45;;;12.63;94.42
52935;BME280;38802;50.198;19.796;2023-06-14T11:05:04;96213.36;;;12.70;94.57
52935;BME280;38802;50.198;19.796;2023-06-14T11:13:05;96200.59;;;12.84;94.67
52935;BME280;38802;50.198;19.796;2023-06-14T11:15:36;96200.10;;;12.89;94.64
52935;BME280;38802;50.198;19.796;2023-06-14T11:18:06;96200.84;;;12.96;94.80
52935;BME280;38802;50.198;19.796;2023-06-14T11:20:35;96195.02;;;12.99;94.72
52935;BME280;38802;50.198;19.796;2023-06-14T11:23:04;96196.95;;;13.03;94.64
52935;BME280;38802;50.198;19.796;2023-06-14T11:25:32;96196.95;;;13.01;94.69
52935;BME280;38802;50.198;19.796;2023-06-14T11:28:00;96197.14;;;13.01;94.52
52935;BME280;38802;50.198;19.796;2023-06-14T11:30:28;96200.52;;;12.98;94.60
52935;BME280;38802;50.198;19.796;2023-06-14T11:32:57;96197.59;;;12.96;94.65
52935;BME280;38802;50.198;19.796;2023-06-14T11:35:26;96199.14;;;13.00;94.62
52935;BME280;38802;50.198;19.796;2023-06-14T11:37:55;96195.25;;;13.02;94.53
52935;BME280;38802;50.198;19.796;2023-06-14T11:40:26;96194.19;;;13.08;94.49
52935;BME280;38802;50.198;19.796;2023-06-14T11:42:59;96190.66;;;13.10;94.50
52935;BME280;38802;50.198;19.796;2023-06-14T11:45:29;96188.91;;;13.16;94.64
52935;BME280;38802;50.198;19.796;2023-06-14T11:47:58;96183.48;;;13.20;94.47
52935;BME280;38802;50.198;19.796;2023-06-14T11:50:27;96182.25;;;13.26;94.88
52935;BME280;38802;50.198;19.796;2023-06-14T11:52:57;96178.73;;;13.30;94.73
52935;BME280;38802;50.198;19.796;2023-06-14T11:55:26;96177.66;;;13.36;94.85
52935;BME280;38802;50.198;19.796;2023-06-14T11:57:54;96176.62;;;13.43;94.70
52935;BME280;38802;50.198;19.796;2023-06-14T12:00:26;96170.22;;;13.48;94.84
52935;BME280;38802;50.198;19.796;2023-06-14T12:02:56;96162.71;;;13.52;94.93
52935;BME280;38802;50.198;19.796;2023-06-14T12:05:25;96160.12;;;13.61;94.53
52935;BME280;38802;50.198;19.796;2023-06-14T12:08:02;96158.45;;;13.63;94.59
52935;BME280;38802;50.198;19.796;2023-06-14T12:10:39;96156.11;;;13.66;94.84
52935;BME280;38802;50.198;19.796;2023-06-14T12:13:09;96160.22;;;13.67;94.72
52935;BME280;38802;50.198;19.796;2023-06-14T12:15:37;96163.31;;;13.71;94.46
52935;BME280;38802;50.198;19.796;2023-06-14T12:18:06;96168.01;;;13.76;94.50
52935;BME280;38802;50.198;19.796;2023-06-14T12:20:38;96168.06;;;13.81;94.52
52935;BME280;38802;50.198;19.796;2023-06-14T12:23:06;96167.52;;;13.85;94.07
52935;BME280;38802;50.198;19.796;2023-06-14T12:25:38;96167.19;;;13.89;94.29
52935;BME280;38802;50.198;19.796;2023-06-14T12:28:09;96172.55;;;13.95;94.06
52935;BME280;38802;50.198;19.796;2023-06-14T12:30:37;96173.95;;;14.00;94.18
52935;BME280;38802;50.198;19.796;2023-06-14T12:33:05;96175.52;;;14.04;93.92
52935;BME280;38802;50.198;19.796;2023-06-14T12:35:35;96174.73;;;14.08;93.82
52935;BME280;38802;50.198;19.796;2023-06-14T12:38:03;96178.46;;;14.15;93.71
52935;BME280;38802;50.198;19.796;2023-06-14T12:43:31;96177.00;;;14.41;93.52
52935;BME280;38802;50.198;19.796;2023-06-14T12:46:01;96177.99;;;14.61;93.45
52935;BME280;38802;50.198;19.796;2023-06-14T12:48:28;96171.75;;;14.72;93.40
52935;BME280;38802;50.198;19.796;2023-06-14T12:50:56;96169.53;;;14.81;92.93
52935;BME280;38802;50.198;19.796;2023-06-14T12:53:23;96169.96;;;14.85;92.46
52935;BME280;38802;50.198;19.796;2023-06-14T12:55:50;96171.98;;;14.84;92.25
52935;BME280;38802;50.198;19.796;2023-06-14T12:58:17;96172.14;;;14.83;91.98
52935;BME280;38802;50.198;19.796;2023-06-14T13:00:46;96171.25;;;14.83;91.86
52935;BME280;38802;50.198;19.796;2023-06-14T13:03:13;96170.28;;;14.84;91.97
52935;BME280;38802;50.198;19.796;2023-06-14T13:05:40;96172.05;;;14.83;91.93
52935;BME280;38802;50.198;19.796;2023-06-14T13:08:08;96166.34;;;14.78;91.52
52935;BME280;38802;50.198;19.796;2023-06-14T13:10:35;96169.64;;;14.74;91.40
52935;BME280;38802;50.198;19.796;2023-06-14T13:13:02;96170.07;;;14.71;91.22
52935;BME280;38802;50.198;19.796;2023-06-14T13:15:29;96170.34;;;14.67;91.12
52935;BME280;38802;50.198;19.796;2023-06-14T13:17:56;96165.73;;;14.64;91.14
52935;BME280;38802;50.198;19.796;2023-06-14T13:20:23;96159.34;;;14.65;90.96
52935;BME280;38802;50.198;19.796;2023-06-14T13:22:51;96160.71;;;14.65;90.91
52935;BME280;38802;50.198;19.796;2023-06-14T13:25:18;96159.11;;;14.65;90.74
52935;BME280;38802;50.198;19.796;2023-06-14T13:27:44;96157.34;;;14.69;90.73
52935;BME280;38802;50.198;19.796;2023-06-14T13:30:11;96159.95;;;14.69;90.59